createdAt,value
2018-04-29T00:00:09.469Z,98302
2018-04-29T00:02:36.141Z,98301
2018-04-29T00:05:02.879Z,98297
2018-04-29T00:07:29.536Z,98298
2018-04-29T00:09:56.213Z,98295
2018-04-29T00:12:22.862Z,98297
2018-04-29T00:14:49.518Z,98297
2018-04-29T00:17:16.173Z,98292
2018-04-29T00:19:42.828Z,98291
2018-04-29T00:22:09.515Z,98284
2018-04-29T00:24:36.160Z,98283
2018-04-29T00:27:02.848Z,98274
2018-04-29T00:29:29.500Z,98270
2018-04-29T00:31:56.908Z,98274
2018-04-29T00:34:23.575Z,98264
2018-04-29T00:36:50.256Z,98262
2018-04-29T00:39:16.936Z,98260
2018-04-29T00:41:43.589Z,98257
2018-04-29T00:44:10.248Z,98263
2018-04-29T00:46:37.640Z,98257
2018-04-29T00:49:04.320Z,98258
2018-04-29T00:51:49.366Z,98251
2018-04-29T00:54:16.044Z,98242
2018-04-29T00:56:43.428Z,98236
2018-04-29T00:59:10.188Z,98239
2018-04-29T01:01:36.868Z,98239
2018-04-29T01:04:04.276Z,98236
2018-04-29T01:06:30.935Z,98226
2018-04-29T01:08:57.596Z,98228
2018-04-29T01:11:24.248Z,98229
2018-04-29T01:13:51.661Z,98233
2018-04-29T01:16:18.345Z,98233
2018-04-29T01:18:45.741Z,98232
2018-04-29T01:21:13.180Z,98231
2018-04-29T01:23:39.861Z,98230
2018-04-29T01:26:06.508Z,98228
2018-04-29T01:28:33.167Z,98231
2018-04-29T01:31:00.626Z,98228
2018-04-29T01:33:28.068Z,98230
2018-04-29T01:35:55.508Z,98229
2018-04-29T01:38:22.960Z,98229
2018-04-29T01:40:49.640Z,98221
2018-04-29T01:43:16.305Z,98213
2018-04-29T01:45:43.748Z,98211
2018-04-29T01:48:10.864Z,98208
2018-04-29T01:50:38.399Z,98212
2018-04-29T01:53:06.004Z,98210
2018-04-29T01:55:32.716Z,98212
2018-04-29T01:58:00.191Z,98212
2018-04-29T02:00:26.989Z,98216
2018-04-29T02:02:53.775Z,98214
2018-04-29T02:05:20.428Z,98216
2018-04-29T02:07:47.081Z,98209
2018-04-29T02:10:13.736Z,98203
2018-04-29T02:12:40.443Z,98202
2018-04-29T02:15:07.121Z,98196
2018-04-29T02:17:33.795Z,98202
2018-04-29T02:20:01.217Z,98202
2018-04-29T02:22:27.858Z,98200
2018-04-29T02:24:54.508Z,98200
2018-04-29T02:27:21.164Z,98203
2018-04-29T02:29:48.556Z,98204
2018-04-29T02:32:15.212Z,98199
2018-04-29T02:34:41.875Z,98206
2018-04-29T02:37:08.566Z,98205
2018-04-29T02:39:35.222Z,98202
2018-04-29T02:42:01.931Z,98195
2018-04-29T02:44:28.671Z,98193
2018-04-29T02:46:55.379Z,98197
2018-04-29T02:49:22.829Z,98199
2018-04-29T02:51:49.524Z,98193
2018-04-29T02:54:16.229Z,98189
2018-04-29T02:56:43.702Z,98190
2018-04-29T02:59:10.397Z,98194
2018-04-29T03:01:37.121Z,98190
2018-04-29T03:04:03.878Z,98192
2018-04-29T03:06:30.572Z,98189
2018-04-29T03:08:57.274Z,98190
2018-04-29T03:11:24.752Z,98191
2018-04-29T03:13:51.475Z,98188
2018-04-29T03:16:18.880Z,98186
2018-04-29T03:18:45.531Z,98186
2018-04-29T03:21:12.235Z,98184
2018-04-29T03:23:38.931Z,98182
2018-04-29T03:26:06.371Z,98177
2018-04-29T03:28:33.076Z,98178
2018-04-29T03:30:59.784Z,98182
2018-04-29T03:33:26.491Z,98185
2018-04-29T03:35:53.216Z,98192
2018-04-29T03:38:19.931Z,98189
2018-04-29T03:40:46.683Z,98186
2018-04-29T03:43:13.437Z,98193
2018-04-29T03:45:40.157Z,98188
2018-04-29T03:48:06.858Z,98189
2018-04-29T03:50:33.563Z,98198
2018-04-29T03:53:00.263Z,98196
2018-04-29T03:55:27.015Z,98195
2018-04-29T03:58:12.303Z,98193
2018-04-29T04:00:57.869Z,98189
2018-04-29T04:03:42.903Z,98189
2018-04-29T04:06:09.642Z,98196
2018-04-29T04:08:36.351Z,98199
2018-04-29T04:11:06.456Z,98197
2018-04-29T04:13:33.948Z,98196
2018-04-29T04:16:01.426Z,98200
2018-04-29T04:18:28.123Z,98201
2018-04-29T04:20:54.856Z,98199
2018-04-29T04:23:21.543Z,98197
2018-04-29T04:25:48.196Z,98196
2018-04-29T04:28:14.854Z,98193
2018-04-29T04:30:41.534Z,98200
2018-04-29T04:33:08.928Z,98204
2018-04-29T04:35:35.594Z,98207
2018-04-29T04:38:02.523Z,98208
2018-04-29T04:40:29.246Z,98204
2018-04-29T04:42:55.968Z,98206
2018-04-29T04:45:22.691Z,98212
2018-04-29T04:47:49.425Z,98207
2018-04-29T04:50:16.920Z,98211
2018-04-29T04:52:44.318Z,98214
2018-04-29T04:55:10.996Z,98212
2018-04-29T04:57:37.663Z,98209
2018-04-29T05:00:04.368Z,98213
2018-04-29T05:02:31.008Z,98215
2018-04-29T05:04:57.656Z,98212
2018-04-29T05:07:24.327Z,98210
2018-04-29T05:09:51.005Z,98202
2018-04-29T05:12:18.460Z,98205
2018-04-29T05:14:45.941Z,98207
2018-04-29T05:17:12.751Z,98203
2018-04-29T05:19:40.196Z,98207
2018-04-29T05:22:06.904Z,98209
2018-04-29T05:24:33.641Z,98200
2018-04-29T05:27:00.324Z,98202
2018-04-29T05:29:27.816Z,98199
2018-04-29T05:31:54.561Z,98203
2018-04-29T05:34:21.248Z,98206
2018-04-29T05:36:48.708Z,98200
2018-04-29T05:39:15.396Z,98199
2018-04-29T05:41:42.108Z,98200
2018-04-29T05:44:08.843Z,98199
2018-04-29T05:46:36.317Z,98206
2018-04-29T05:49:03.116Z,98211
2018-04-29T05:51:29.884Z,98206
2018-04-29T05:53:57.339Z,98209
2018-04-29T05:56:24.772Z,98218
2018-04-29T05:58:51.494Z,98219
2018-04-29T06:01:18.230Z,98214
2018-04-29T06:03:44.932Z,98211
2018-04-29T06:06:11.697Z,98211
2018-04-29T06:08:38.380Z,98214
2018-04-29T06:11:05.808Z,98217
2018-04-29T06:13:32.490Z,98217
2018-04-29T06:15:59.177Z,98221
2018-04-29T06:18:25.892Z,98224
2018-04-29T06:20:52.565Z,98214
2018-04-29T06:23:19.237Z,98213
2018-04-29T06:25:46.672Z,98214
2018-04-29T06:28:13.333Z,98213
2018-04-29T06:30:40.748Z,98209
2018-04-29T06:33:07.497Z,98211
2018-04-29T06:35:34.139Z,98211
2018-04-29T06:38:00.827Z,98207
2018-04-29T06:40:27.492Z,98198
2018-04-29T06:42:54.160Z,98192
2018-04-29T06:45:20.837Z,98188
2018-04-29T06:47:47.562Z,98190
2018-04-29T06:50:14.244Z,98186
2018-04-29T06:52:40.912Z,98187
2018-04-29T06:55:07.560Z,98188
2018-04-29T06:57:34.992Z,98188
2018-04-29T07:00:01.712Z,98191
2018-04-29T07:02:28.444Z,98189
2018-04-29T07:04:55.098Z,98198
2018-04-29T07:07:21.767Z,98191
2018-04-29T07:09:51.366Z,98189
2018-04-29T07:12:18.020Z,98186
2018-04-29T07:14:45.400Z,98189
2018-04-29T07:17:12.073Z,98188
2018-04-29T07:19:38.749Z,98183
2018-04-29T07:22:06.159Z,98184
2018-04-29T07:24:32.808Z,98184
2018-04-29T07:26:59.465Z,98185
2018-04-29T07:29:26.158Z,98186
2018-04-29T07:32:04.735Z,98189
2018-04-29T07:34:32.160Z,98178
2018-04-29T07:36:59.660Z,98181
2018-04-29T07:39:26.338Z,98188
2018-04-29T07:41:53.003Z,98185
2018-04-29T07:44:19.693Z,98193
2018-04-29T07:46:46.346Z,98198
2018-04-29T07:49:13.860Z,98197
2018-04-29T07:51:41.263Z,98204
2018-04-29T07:54:07.948Z,98200
2018-04-29T07:56:35.348Z,98200
2018-04-29T07:59:02.002Z,98200
2018-04-29T08:01:28.641Z,98191
2018-04-29T08:03:55.313Z,98195
2018-04-29T08:06:21.996Z,98197
2018-04-29T08:08:48.643Z,98200
2018-04-29T08:11:15.341Z,98206
2018-04-29T08:13:42.750Z,98206
2018-04-29T08:16:09.436Z,98202
2018-04-29T08:18:36.110Z,98202
2018-04-29T08:21:02.793Z,98201
2018-04-29T08:23:29.475Z,98199
2018-04-29T08:25:56.658Z,98204
2018-04-29T08:28:23.340Z,98205
2018-04-29T08:30:50.756Z,98206
2018-04-29T08:33:17.423Z,98213
2018-04-29T08:35:44.832Z,98202
2018-04-29T08:38:11.488Z,98203
2018-04-29T08:40:38.141Z,98199
2018-04-29T08:43:04.846Z,98191
2018-04-29T08:45:31.523Z,98192
2018-04-29T08:47:58.176Z,98186
2018-04-29T08:50:25.576Z,98194
2018-04-29T08:52:52.229Z,98192
2018-04-29T08:55:18.897Z,98194
2018-04-29T08:57:46.312Z,98195
2018-04-29T09:00:12.993Z,98193
2018-04-29T09:02:40.404Z,98194
2018-04-29T09:05:07.077Z,98190
2018-04-29T09:07:33.717Z,98192
2018-04-29T09:10:00.363Z,98193
2018-04-29T09:12:30.964Z,98191
2018-04-29T09:14:57.672Z,98185
2018-04-29T09:17:24.391Z,98182
2018-04-29T09:19:52.164Z,98180
2018-04-29T09:22:20.031Z,98182
2018-04-29T09:24:47.611Z,98176
2018-04-29T09:27:14.267Z,98178
2018-04-29T09:29:41.016Z,98174
2018-04-29T09:32:07.676Z,98172
2018-04-29T09:34:35.109Z,98175
2018-04-29T09:37:01.925Z,98177
2018-04-29T09:39:29.535Z,98179
2018-04-29T09:41:56.968Z,98172
2018-04-29T09:44:23.666Z,98166
2018-04-29T09:46:50.348Z,98170
2018-04-29T09:49:17.095Z,98161
2018-04-29T09:51:44.568Z,98159
2018-04-29T09:54:12.006Z,98156
2018-04-29T09:56:38.688Z,98151
2018-04-29T09:59:05.353Z,98148
2018-04-29T10:01:34.863Z,98147
2018-04-29T10:04:01.523Z,98152
2018-04-29T10:06:28.225Z,98145
2018-04-29T10:08:54.920Z,98139
2018-04-29T10:11:21.640Z,98139
2018-04-29T10:13:48.345Z,98132
2018-04-29T10:16:14.967Z,98130
2018-04-29T10:18:41.638Z,98124
2018-04-29T10:21:08.325Z,98123
2018-04-29T10:23:35.003Z,98121
2018-04-29T10:26:01.681Z,98125
2018-04-29T10:28:28.447Z,98124
2018-04-29T10:30:55.153Z,98122
2018-04-29T10:33:22.602Z,98115
2018-04-29T10:35:49.292Z,98117
2018-04-29T10:38:16.028Z,98119
2018-04-29T10:40:42.721Z,98099
2018-04-29T10:43:09.402Z,98120
2018-04-29T10:45:36.079Z,98123
2018-04-29T10:48:02.808Z,98117
2018-04-29T10:50:29.478Z,98111
2018-04-29T10:52:56.161Z,98114
2018-04-29T10:55:23.624Z,98117
2018-04-29T10:57:50.297Z,98104
2018-04-29T11:00:16.978Z,98105
2018-04-29T11:02:43.700Z,98103
2018-04-29T11:05:11.118Z,98099
2018-04-29T11:07:37.793Z,98099
2018-04-29T11:10:05.286Z,98100
2018-04-29T11:12:32.001Z,98098
2018-04-29T11:14:58.768Z,98095
2018-04-29T11:17:25.455Z,98099
2018-04-29T11:19:52.133Z,98104
2018-04-29T11:22:18.892Z,98099
2018-04-29T11:24:46.268Z,98104
2018-04-29T11:27:12.938Z,98089
2018-04-29T11:29:40.380Z,98085
2018-04-29T11:32:07.073Z,98093
2018-04-29T11:34:33.728Z,98088
2018-04-29T11:37:00.417Z,98079
2018-04-29T11:39:27.838Z,98098
2018-04-29T11:41:54.504Z,98090
2018-04-29T11:44:21.905Z,98089
2018-04-29T11:46:48.662Z,98091
2018-04-29T11:49:15.389Z,98090
2018-04-29T11:51:42.048Z,98087
2018-04-29T11:54:08.753Z,98085
2018-04-29T11:56:35.428Z,98085
2018-04-29T11:59:02.145Z,98086
2018-04-29T12:01:28.842Z,98088
2018-04-29T12:03:55.505Z,98087
2018-04-29T12:06:22.217Z,98094
2018-04-29T12:08:48.917Z,98083
2018-04-29T12:11:15.590Z,98081
2018-04-29T12:13:43.061Z,98055
2018-04-29T12:16:09.739Z,98074
2018-04-29T12:18:36.400Z,98061
2018-04-29T12:21:03.085Z,98066
2018-04-29T12:23:29.745Z,98073
2018-04-29T12:25:56.459Z,98060
2018-04-29T12:28:23.152Z,98068
2018-04-29T12:30:49.852Z,98065
2018-04-29T12:33:16.569Z,98061
2018-04-29T12:35:43.224Z,98051
2018-04-29T12:38:09.910Z,98051
2018-04-29T12:40:36.577Z,98057
2018-04-29T12:43:03.305Z,98038
2018-04-29T12:45:30.793Z,98048
2018-04-29T12:47:57.490Z,98048
2018-04-29T12:50:24.161Z,98049
2018-04-29T12:52:50.828Z,98045
2018-04-29T12:55:17.581Z,98037
2018-04-29T12:57:44.262Z,98036
2018-04-29T13:00:11.765Z,98028
2018-04-29T13:02:38.395Z,98031
2018-04-29T13:05:05.145Z,98030
2018-04-29T13:07:31.827Z,98028
2018-04-29T13:09:59.274Z,98028
2018-04-29T13:12:25.960Z,98023
2018-04-29T13:14:52.640Z,98032
2018-04-29T13:17:19.327Z,98026
2018-04-29T13:19:45.987Z,98022
2018-04-29T13:22:12.724Z,98022
2018-04-29T13:24:39.466Z,98018
2018-04-29T13:27:06.143Z,98026
2018-04-29T13:29:33.634Z,98014
2018-04-29T13:32:01.045Z,98013
2018-04-29T13:34:27.732Z,98022
2018-04-29T13:36:54.422Z,98020
2018-04-29T13:39:21.124Z,98026
2018-04-29T13:41:47.792Z,98015
2018-04-29T13:44:14.497Z,98007
2018-04-29T13:46:41.203Z,98017
2018-04-29T13:49:07.912Z,98010
2018-04-29T13:51:35.529Z,98007
2018-04-29T13:54:02.204Z,98012
2018-04-29T13:56:28.915Z,98006
2018-04-29T13:58:55.653Z,98000
2018-04-29T14:01:22.303Z,98001
2018-04-29T14:03:49.012Z,98000
2018-04-29T14:06:15.664Z,97999
2018-04-29T14:08:42.364Z,97997
2018-04-29T14:11:09.777Z,97986
2018-04-29T14:13:36.477Z,97985
2018-04-29T14:16:03.287Z,97987
2018-04-29T14:18:29.892Z,97973
2018-04-29T14:20:56.577Z,97981
2018-04-29T14:23:24.021Z,97979
2018-04-29T14:25:50.686Z,97978
2018-04-29T14:28:17.365Z,97975
2018-04-29T14:30:44.044Z,97981
2018-04-29T14:33:11.449Z,97977
2018-04-29T14:35:38.128Z,97975
2018-04-29T14:38:05.609Z,97977
2018-04-29T14:40:32.329Z,97976
2018-04-29T14:42:59.756Z,97980
2018-04-29T14:45:27.189Z,97978
2018-04-29T14:47:53.851Z,97985
2018-04-29T14:50:20.548Z,97985
2018-04-29T14:52:47.228Z,97980
2018-04-29T14:55:13.934Z,97976
2018-04-29T14:57:40.611Z,97970
2018-04-29T15:00:07.304Z,97978
2018-04-29T15:02:34.022Z,97978
2018-04-29T15:05:01.562Z,97967
2018-04-29T15:07:28.248Z,97968
2018-04-29T15:09:54.916Z,97969
2018-04-29T15:12:21.654Z,97962
2018-04-29T15:14:48.348Z,97972
2018-04-29T15:17:15.090Z,97969
2018-04-29T15:19:49.795Z,97973
2018-04-29T15:22:16.628Z,97963
2018-04-29T15:24:44.109Z,97965
2018-04-29T15:27:10.845Z,97961
2018-04-29T15:29:38.301Z,97964
2018-04-29T15:32:05.842Z,97960
2018-04-29T15:34:33.315Z,97970
2018-04-29T15:37:00.775Z,97967
2018-04-29T15:39:27.474Z,97967
2018-04-29T15:41:54.214Z,97968
2018-04-29T15:44:21.014Z,97968
2018-04-29T15:46:48.161Z,97967
2018-04-29T15:49:14.870Z,97966
2018-04-29T15:51:42.340Z,97962
2018-04-29T15:54:09.835Z,97959
2018-04-29T15:56:36.597Z,97962
2018-04-29T15:59:03.347Z,97964
2018-04-29T16:01:30.045Z,97955
2018-04-29T16:03:56.772Z,97967
2018-04-29T16:06:23.516Z,97963
2018-04-29T16:08:50.181Z,97935
2018-04-29T16:11:16.896Z,97960
2018-04-29T16:13:43.582Z,97960
2018-04-29T16:16:10.331Z,97957
2018-04-29T16:18:37.809Z,97948
2018-04-29T16:21:04.610Z,97950
2018-04-29T16:23:31.310Z,97947
2018-04-29T16:25:58.134Z,97946
2018-04-29T16:28:24.846Z,97947
2018-04-29T16:30:51.631Z,97948
2018-04-29T16:33:18.395Z,97945
2018-04-29T16:35:45.146Z,97945
2018-04-29T16:38:12.689Z,97945
2018-04-29T16:40:41.081Z,97943
2018-04-29T16:43:07.861Z,97941
2018-04-29T16:45:35.350Z,97941
2018-04-29T16:48:02.386Z,97943
2018-04-29T16:50:29.055Z,97946
2018-04-29T16:52:55.769Z,97948
2018-04-29T16:55:22.516Z,97952
2018-04-29T16:57:49.228Z,97946
2018-04-29T17:00:15.908Z,97948
2018-04-29T17:02:43.504Z,97953
2018-04-29T17:05:10.149Z,97955
2018-04-29T17:07:37.593Z,97959
2018-04-29T17:10:04.316Z,97963
2018-04-29T17:12:31.014Z,97970
2018-04-29T17:14:57.661Z,97970
2018-04-29T17:17:24.349Z,97971
2018-04-29T17:19:51.053Z,97978
2018-04-29T17:22:18.526Z,97976
2018-04-29T17:24:45.238Z,97978
2018-04-29T17:27:11.914Z,97973
2018-04-29T17:29:38.606Z,97971
2018-04-29T17:32:05.276Z,97980
2018-04-29T17:34:32.726Z,97984
2018-04-29T17:36:59.396Z,97980
2018-04-29T17:39:26.853Z,97981
2018-04-29T17:41:54.280Z,97980
2018-04-29T17:44:20.948Z,97979
2018-04-29T17:46:48.401Z,97985
2018-04-29T17:49:15.065Z,97988
2018-04-29T17:51:41.737Z,97989
2018-04-29T17:54:08.417Z,97992
2018-04-29T17:56:35.142Z,97997
2018-04-29T17:59:01.805Z,98001
2018-04-29T18:01:29.291Z,98006
2018-04-29T18:03:55.929Z,98004
2018-04-29T18:06:22.617Z,98005
2018-04-29T18:08:49.349Z,98011
2018-04-29T18:11:16.024Z,98015
2018-04-29T18:14:05.189Z,98022
2018-04-29T18:16:32.661Z,98026
2018-04-29T18:18:59.354Z,98024
2018-04-29T18:21:26.022Z,98028
2018-04-29T18:23:53.429Z,98026
2018-04-29T18:26:20.132Z,98031
2018-04-29T18:28:46.861Z,98031
2018-04-29T18:31:17.443Z,98037
2018-04-29T18:33:44.193Z,98040
2018-04-29T18:36:10.912Z,98053
2018-04-29T18:38:37.584Z,98058
2018-04-29T18:41:05.047Z,98058
2018-04-29T18:43:32.539Z,98061
2018-04-29T18:45:59.320Z,98066
2018-04-29T18:48:26.029Z,98068
2018-04-29T18:50:52.885Z,98070
2018-04-29T18:53:19.508Z,98069
2018-04-29T18:55:46.222Z,98070
2018-04-29T18:58:12.996Z,98077
2018-04-29T19:00:39.718Z,98083
2018-04-29T19:03:06.437Z,98091
2018-04-29T19:05:46.714Z,98094
2018-04-29T19:08:13.442Z,98096
2018-04-29T19:10:41.387Z,98091
2018-04-29T19:13:08.861Z,98098
2018-04-29T19:15:36.436Z,98099
2018-04-29T19:18:04.014Z,98106
2018-04-29T19:20:30.736Z,98115
2018-04-29T19:22:57.497Z,98119
2018-04-29T19:25:24.181Z,98116
2018-04-29T19:27:51.664Z,98123
2018-04-29T19:30:18.344Z,98124
2018-04-29T19:32:45.020Z,98125
2018-04-29T19:35:12.447Z,98119
2018-04-29T19:37:39.166Z,98127
2018-04-29T19:40:05.858Z,98125
2018-04-29T19:42:32.592Z,98133
2018-04-29T19:45:00.030Z,98131
2018-04-29T19:47:26.687Z,98127
2018-04-29T19:49:54.117Z,98131
2018-04-29T19:52:20.839Z,98130
2018-04-29T19:54:47.493Z,98129
2018-04-29T19:57:14.206Z,98129
2018-04-29T19:59:40.899Z,98131
2018-04-29T20:02:08.341Z,98133
2018-04-29T20:04:35.769Z,98132
2018-04-29T20:07:02.544Z,98126
2018-04-29T20:09:30.008Z,98123
2018-04-29T20:11:57.441Z,98125
2018-04-29T20:14:24.145Z,98122
2018-04-29T20:16:50.844Z,98127
2018-04-29T20:19:18.279Z,98122
2018-04-29T20:21:44.952Z,98130
2018-04-29T20:24:11.675Z,98131
2018-04-29T20:26:39.124Z,98134
2018-04-29T20:29:06.579Z,98135
2018-04-29T20:31:34.013Z,98131
2018-04-29T20:34:00.745Z,98134
2018-04-29T20:36:27.405Z,98135
2018-04-29T20:38:54.811Z,98123
2018-04-29T20:41:21.498Z,98127
2018-04-29T20:43:54.134Z,98127
2018-04-29T20:46:20.792Z,98124
2018-04-29T20:48:47.482Z,98125
2018-04-29T20:51:14.161Z,98133
2018-04-29T20:53:40.837Z,98141
2018-04-29T20:56:08.241Z,98147
2018-04-29T20:58:34.922Z,98157
2018-04-29T21:01:02.457Z,98158
2018-04-29T21:03:29.112Z,98161
2018-04-29T21:05:55.785Z,98152
2018-04-29T21:08:22.472Z,98153
2018-04-29T21:10:49.217Z,98162
2018-04-29T21:13:15.894Z,98167
2018-04-29T21:15:42.553Z,98185
2018-04-29T21:18:09.233Z,98187
2018-04-29T21:20:35.905Z,98185
2018-04-29T21:23:03.342Z,98192
2018-04-29T21:25:30.812Z,98187
2018-04-29T21:27:58.264Z,98182
2018-04-29T21:30:25.662Z,98184
2018-04-29T21:32:52.357Z,98181
2018-04-29T21:35:19.837Z,98180
2018-04-29T21:37:46.491Z,98171
2018-04-29T21:40:13.184Z,98171
2018-04-29T21:42:39.865Z,98172
2018-04-29T21:45:06.569Z,98176
2018-04-29T21:47:33.247Z,98175
2018-04-29T21:49:59.934Z,98180
2018-04-29T21:52:26.609Z,98183
2018-04-29T21:54:53.320Z,98182
2018-04-29T21:57:19.985Z,98186
2018-04-29T21:59:46.672Z,98187
2018-04-29T22:02:13.354Z,98190
2018-04-29T22:04:40.077Z,98184
2018-04-29T22:07:07.491Z,98187
2018-04-29T22:09:34.160Z,98184
2018-04-29T22:12:00.814Z,98179
2018-04-29T22:14:29.087Z,98179
2018-04-29T22:16:56.524Z,98178
2018-04-29T22:19:23.265Z,98178
2018-04-29T22:21:49.929Z,98181
2018-04-29T22:24:16.591Z,98182
2018-04-29T22:26:43.287Z,98183
2018-04-29T22:29:09.932Z,98187
2018-04-29T22:31:37.319Z,98191
2018-04-29T22:34:04.047Z,98193
2018-04-29T22:36:30.744Z,98193
2018-04-29T22:38:57.434Z,98187
2018-04-29T22:41:24.122Z,98155
2018-04-29T22:43:50.860Z,98183
2018-04-29T22:46:17.522Z,98189
2018-04-29T22:48:44.932Z,98190
2018-04-29T22:51:11.612Z,98187
2018-04-29T22:53:38.986Z,98185
2018-04-29T22:56:05.645Z,98183
2018-04-29T22:58:32.317Z,98193
2018-04-29T23:00:59.028Z,98192
2018-04-29T23:03:25.691Z,98186
2018-04-29T23:05:52.362Z,98178
2018-04-29T23:08:19.796Z,98177
2018-04-29T23:10:46.450Z,98172
2018-04-29T23:13:13.856Z,98167
2018-04-29T23:15:40.544Z,98165
2018-04-29T23:18:07.936Z,98163
2018-04-29T23:20:34.624Z,98167
2018-04-29T23:23:01.324Z,98168
2018-04-29T23:25:27.971Z,98179
2018-04-29T23:27:54.804Z,98180
2018-04-29T23:30:21.457Z,98180
2018-04-29T23:32:48.116Z,98179
2018-04-29T23:35:14.781Z,98172
2018-04-29T23:37:41.432Z,98163
2018-04-29T23:40:08.092Z,98164
2018-04-29T23:42:34.751Z,98158
2018-04-29T23:45:01.437Z,98156
2018-04-29T23:47:28.118Z,98158
2018-04-29T23:49:54.792Z,98156
2018-04-29T23:52:21.464Z,98162
2018-04-29T23:54:48.129Z,98163
2018-04-29T23:57:14.797Z,98166
2018-04-29T23:59:41.449Z,98160
